Time;durP1;ratioP1;P1;durP2;ratioP2;P2;SDS_P1;SDS_P2;PMS_P1;PMS_P2;Temp;Humidity;BMP_temperature;BMP_pressure;BME280_temperature;BME280_humidity;BME280_pressure;Samples;Min_cycle;Max_cycle;Signal;HPM_P1;HPM_P2
2023/08/14 00:02:13;;;;;;;2.50;1.05;;;27.10;68.10;;;;;;10569005;27;20118;-34
2023/08/14 00:07:15;;;;;;;1.98;0.90;;;27.00;68.20;;;;;;10572281;27;20075;-31
2023/08/14 00:12:18;;;;;;;1.90;0.93;;;27.00;68.20;;;;;;10576223;27;20075;-34
2023/08/14 00:17:20;;;;;;;1.90;0.80;;;27.00;68.20;;;;;;10576853;28;20048;-32
2023/08/14 00:22:22;;;;;;;1.17;0.65;;;27.00;68.20;;;;;;10579796;27;20119;-31
2023/08/14 00:27:25;;;;;;;1.80;0.77;;;26.90;68.00;;;;;;10555441;28;20048;-35
2023/08/14 00:32:27;;;;;;;0.88;0.65;;;26.90;68.30;;;;;;10566158;27;20059;-31
2023/08/14 00:37:41;;;;;;;3.25;1.15;;;26.90;68.40;;;;;;10573349;28;20100;-31
2023/08/14 00:42:46;;;;;;;2.75;0.80;;;26.90;68.30;;;;;;10577244;27;20055;-31
2023/08/14 00:47:49;;;;;;;2.25;0.60;;;26.80;68.10;;;;;;10578390;27;20044;-32
2023/08/14 00:52:54;;;;;;;1.50;0.70;;;26.80;68.20;;;;;;10570802;28;20047;-35
2023/08/14 00:57:58;;;;;;;2.53;0.85;;;26.80;68.20;;;;;;10569261;27;20077;-34
2023/08/14 01:03:00;;;;;;;0.95;0.55;;;26.80;68.20;;;;;;10566582;27;20143;-41
2023/08/14 01:08:03;;;;;;;1.92;0.90;;;26.80;68.10;;;;;;10571322;27;20059;-37
2023/08/14 01:13:12;;;;;;;2.65;0.60;;;26.70;68.20;;;;;;10561930;28;20137;-35
2023/08/14 01:18:18;;;;;;;1.65;0.73;;;26.60;68.20;;;;;;10552075;27;20040;-36
2023/08/14 01:23:27;;;;;;;1.40;0.60;;;26.70;68.20;;;;;;10563777;27;20105;-33
2023/08/14 01:28:30;;;;;;;1.70;0.70;;;26.60;68.10;;;;;;10575352;27;20071;-35
2023/08/14 01:33:32;;;;;;;1.48;0.70;;;26.60;68.20;;;;;;10570974;27;20067;-39
2023/08/14 01:38:40;;;;;;;1.70;0.60;;;26.60;68.20;;;;;;10565227;28;20138;-31
2023/08/14 01:43:48;;;;;;;0.85;0.50;;;26.60;68.20;;;;;;10560682;27;20446;-35
2023/08/14 01:48:51;;;;;;;1.80;0.88;;;26.60;68.20;;;;;;10572604;27;20198;-34
2023/08/14 01:53:53;;;;;;;1.98;0.73;;;26.60;68.20;;;;;;10562359;27;20039;-33
2023/08/14 01:58:56;;;;;;;2.00;0.75;;;26.50;68.00;;;;;;10575628;28;20055;-34
2023/08/14 02:03:58;;;;;;;1.70;0.80;;;26.50;68.20;;;;;;10563754;28;20051;-39
2023/08/14 02:09:00;;;;;;;1.13;0.55;;;26.50;68.20;;;;;;10575334;28;20055;-36
2023/08/14 02:14:03;;;;;;;1.60;0.50;;;26.40;68.00;;;;;;10567966;28;20071;-33
2023/08/14 02:19:05;;;;;;;2.05;0.60;;;26.40;68.20;;;;;;10564466;27;20047;-43
2023/08/14 02:24:08;;;;;;;2.58;0.57;;;26.40;68.10;;;;;;10574499;27;20043;-31
2023/08/14 02:29:11;;;;;;;0.68;0.32;;;26.40;68.10;;;;;;10574350;28;20044;-33
2023/08/14 02:34:31;;;;;;;1.48;0.50;;;26.40;68.00;;;;;;10579838;27;20131;-40
2023/08/14 02:39:32;;;;;;;1.13;0.40;;;26.40;68.10;;;;;;10573865;27;20108;-39
2023/08/14 02:44:36;;;;;;;0.55;0.40;;;26.30;68.00;;;;;;10574918;28;20042;-39
2023/08/14 02:49:38;;;;;;;1.23;0.60;;;26.30;68.00;;;;;;10565620;27;20074;-40
2023/08/14 02:54:40;;;;;;;0.70;0.40;;;26.30;68.00;;;;;;10568669;28;20137;-38
2023/08/14 03:15:29;;;;;;;1.42;0.52;;;26.00;68.10;;;;;;10552252;27;20499;-34
2023/08/14 03:20:31;;;;;;;2.22;0.45;;;26.10;68.50;;;;;;10520135;28;20562;-34
2023/08/14 03:25:33;;;;;;;1.65;0.93;;;26.10;68.20;;;;;;10525018;28;20102;-32
2023/08/14 03:30:41;;;;;;;0.57;0.50;;;26.10;68.30;;;;;;10513898;28;20064;-41
2023/08/14 03:35:43;;;;;;;0.50;0.50;;;26.10;68.30;;;;;;10522413;28;20090;-39
2023/08/14 03:40:45;;;;;;;0.70;0.38;;;26.10;68.10;;;;;;10525482;28;20152;-42
2023/08/14 03:45:48;;;;;;;0.70;0.30;;;26.10;68.20;;;;;;10525210;28;20534;-36
2023/08/14 03:50:51;;;;;;;0.88;0.50;;;26.00;68.20;;;;;;10523904;28;20048;-37
2023/08/14 03:55:53;;;;;;;0.88;0.60;;;26.00;68.20;;;;;;10521886;28;20036;-33
2023/08/14 04:00:56;;;;;;;1.05;0.60;;;26.00;68.20;;;;;;10525016;28;20086;-34
2023/08/14 04:06:01;;;;;;;0.82;0.50;;;26.00;68.00;;;;;;10521851;28;20106;-30
2023/08/14 04:11:04;;;;;;;1.55;0.70;;;26.00;68.00;;;;;;10520298;28;20056;-30
2023/08/14 04:16:07;;;;;;;2.58;0.65;;;26.00;68.10;;;;;;10524021;28;20037;-39
2023/08/14 04:21:09;;;;;;;0.50;0.40;;;26.00;68.00;;;;;;10523534;28;20505;-32
2023/08/14 04:26:12;;;;;;;0.85;0.47;;;25.90;68.00;;;;;;10482974;28;20444;-33
2023/08/14 04:31:16;;;;;;;0.88;0.40;;;26.00;67.90;;;;;;10489219;28;20079;-39
2023/08/14 04:36:17;;;;;;;0.65;0.60;;;26.00;68.20;;;;;;10492315;28;20071;-33
2023/08/14 04:41:19;;;;;;;0.93;0.60;;;26.00;68.30;;;;;;10495080;28;20076;-33
2023/08/14 04:46:31;;;;;;;2.58;0.68;;;26.00;68.50;;;;;;10493929;28;20045;-32
2023/08/14 04:51:33;;;;;;;2.17;0.73;;;26.00;68.70;;;;;;10496661;28;20621;-38
2023/08/14 04:56:35;;;;;;;0.85;0.60;;;26.00;68.90;;;;;;10491527;28;20071;-37
2023/08/14 05:01:38;;;;;;;1.35;0.85;;;26.00;68.90;;;;;;10491821;28;20401;-37
2023/08/14 05:06:40;;;;;;;4.13;0.63;;;26.00;69.10;;;;;;10495640;28;20078;-32
2023/08/14 05:11:43;;;;;;;1.27;0.70;;;25.90;69.00;;;;;;10479751;28;20394;-32
2023/08/14 05:16:46;;;;;;;1.55;0.68;;;25.90;69.10;;;;;;10493083;28;20048;-33
2023/08/14 05:21:48;;;;;;;5.45;0.90;;;25.90;69.10;;;;;;10486396;28;20105;-37
2023/08/14 05:26:49;;;;;;;1.25;0.60;;;25.90;69.10;;;;;;10492444;28;20076;-32
2023/08/14 05:31:53;;;;;;;1.15;0.57;;;25.90;69.10;;;;;;10486390;28;20517;-32
2023/08/14 05:36:54;;;;;;;3.30;0.60;;;25.90;69.10;;;;;;10483348;28;20066;-32
2023/08/14 05:41:56;;;;;;;2.63;0.50;;;25.90;69.10;;;;;;10488755;28;20086;-35
2023/08/14 05:46:59;;;;;;;2.72;0.95;;;25.90;69.10;;;;;;10485833;28;20147;-41
2023/08/14 05:52:01;;;;;;;1.33;0.55;;;25.90;69.10;;;;;;10494945;28;20132;-35
2023/08/14 05:57:03;;;;;;;1.98;0.70;;;25.90;69.10;;;;;;10481065;28;20472;-32
2023/08/14 06:02:07;;;;;;;3.40;0.70;;;25.90;69.00;;;;;;10486093;28;20509;-40
2023/08/14 06:07:09;;;;;;;3.13;0.68;;;25.90;69.00;;;;;;10488535;28;20041;-33
2023/08/14 06:12:11;;;;;;;4.38;0.77;;;25.90;69.00;;;;;;10489650;28;20056;-34
2023/08/14 06:17:14;;;;;;;1.40;0.90;;;25.90;68.90;;;;;;10489029;28;20041;-36
2023/08/14 06:22:17;;;;;;;2.65;0.80;;;25.90;68.90;;;;;;10488345;28;20711;-33
2023/08/14 06:27:19;;;;;;;2.88;0.93;;;25.90;68.80;;;;;;10488397;28;20070;-37
2023/08/14 06:32:22;;;;;;;3.08;0.82;;;26.00;68.70;;;;;;10482948;28;20458;-32
2023/08/14 06:37:24;;;;;;;2.28;0.70;;;25.90;68.60;;;;;;10480672;28;20086;-38
2023/08/14 06:42:26;;;;;;;3.40;1.08;;;26.00;68.70;;;;;;10475786;28;20464;-37
2023/08/14 06:47:29;;;;;;;2.13;0.80;;;26.00;68.60;;;;;;10479968;28;20551;-39
2023/08/14 06:52:31;;;;;;;5.32;1.52;;;25.90;68.40;;;;;;10486467;28;20084;-33
2023/08/14 06:57:33;;;;;;;3.53;1.10;;;26.10;67.90;;;;;;10473109;28;20150;-33
2023/08/14 07:02:36;;;;;;;2.45;0.90;;;26.00;67.50;;;;;;10480502;28;20068;-39
2023/08/14 07:07:38;;;;;;;3.78;0.85;;;26.10;67.60;;;;;;10483744;28;20486;-34
2023/08/14 07:12:40;;;;;;;2.25;0.93;;;26.10;67.40;;;;;;10485771;28;20132;-35
2023/08/14 07:17:44;;;;;;;4.78;1.02;;;25.90;66.90;;;;;;10472918;28;20048;-36
2023/08/14 07:22:45;;;;;;;4.93;1.70;;;26.10;67.30;;;;;;10494028;28;21154;-37
2023/08/14 07:27:47;;;;;;;5.60;0.90;;;26.20;67.10;;;;;;10486216;28;20109;-38
2023/08/14 07:32:51;;;;;;;3.42;0.90;;;26.30;66.70;;;;;;10486606;28;20378;-38
2023/08/14 07:37:53;;;;;;;3.08;0.70;;;26.30;66.40;;;;;;10484825;28;20056;-34
2023/08/14 07:42:55;;;;;;;1.40;0.70;;;26.40;66.20;;;;;;10482559;28;20056;-42
2023/08/14 07:47:58;;;;;;;4.78;0.98;;;26.40;66.00;;;;;;10487909;28;20102;-31
2023/08/14 07:53:00;;;;;;;1.10;0.70;;;26.50;65.80;;;;;;10485751;28;20135;-35
2023/08/14 07:58:02;;;;;;;1.73;0.77;;;26.40;65.50;;;;;;10486862;28;20094;-35
2023/08/14 08:03:05;;;;;;;1.92;0.73;;;26.50;65.40;;;;;;10494353;28;20064;-36
2023/08/14 08:08:08;;;;;;;3.28;0.80;;;26.40;65.60;;;;;;10496124;28;20052;-37
2023/08/14 08:13:09;;;;;;;5.85;0.68;;;26.50;65.10;;;;;;10493291;28;20170;-37
2023/08/14 08:18:13;;;;;;;1.85;0.63;;;26.50;63.50;;;;;;10475389;28;20084;-37
2023/08/14 08:23:14;;;;;;;3.25;0.80;;;26.40;65.10;;;;;;10494269;28;20044;-32
2023/08/14 08:28:16;;;;;;;1.70;0.85;;;26.60;64.70;;;;;;10492776;28;20110;-38
2023/08/14 08:33:19;;;;;;;5.40;0.80;;;26.30;64.80;;;;;;10492708;28;20401;-36
2023/08/14 08:38:21;;;;;;;2.30;0.65;;;26.30;63.90;;;;;;10497347;28;20441;-30
2023/08/14 08:43:24;;;;;;;3.45;0.93;;;26.50;64.70;;;;;;10491015;28;20501;-35
2023/08/14 08:48:32;;;;;;;1.48;0.70;;;26.60;63.30;;;;;;10493239;28;20076;-37
2023/08/14 08:53:34;;;;;;;3.80;0.80;;;26.50;64.40;;;;;;10492748;28;20535;-34
2023/08/14 08:58:36;;;;;;;4.97;1.15;;;26.50;64.00;;;;;;10493413;28;20128;-31
2023/08/14 09:03:39;;;;;;;2.35;0.95;;;25.90;66.00;;;;;;10504412;28;20044;-35
2023/08/14 09:08:41;;;;;;;4.07;1.30;;;26.40;64.50;;;;;;10484375;28;20139;-34
2023/08/14 09:13:43;;;;;;;2.88;0.90;;;26.50;65.20;;;;;;10483696;28;20096;-39
2023/08/14 09:18:47;;;;;;;2.35;0.95;;;26.50;65.10;;;;;;10487848;28;20132;-37
2023/08/14 09:23:48;;;;;;;1.88;1.00;;;27.00;63.70;;;;;;10487094;28;20047;-36
2023/08/14 09:28:50;;;;;;;1.08;0.90;;;26.80;63.70;;;;;;10492555;28;20106;-32
2023/08/14 09:33:54;;;;;;;1.80;0.75;;;26.80;64.40;;;;;;10484332;28;20091;-38
2023/08/14 09:38:56;;;;;;;4.00;1.58;;;26.80;64.30;;;;;;10485454;28;20626;-38
2023/08/14 09:44:01;;;;;;;2.25;1.05;;;27.20;63.60;;;;;;10488562;28;20064;-44
2023/08/14 09:49:06;;;;;;;3.85;0.95;;;27.00;64.10;;;;;;10485110;28;20052;-39
2023/08/14 09:54:09;;;;;;;3.00;0.70;;;27.10;63.90;;;;;;10497543;28;20116;-39
2023/08/14 09:59:11;;;;;;;1.55;0.65;;;26.90;64.30;;;;;;10487552;28;20056;-38
2023/08/14 10:04:15;;;;;;;3.42;0.85;;;27.20;63.60;;;;;;10486221;28;20119;-42
2023/08/14 10:09:21;;;;;;;5.13;1.48;;;27.50;62.90;;;;;;10488027;28;20044;-41
2023/08/14 10:14:24;;;;;;;1.60;0.68;;;26.80;63.90;;;;;;10487504;28;20055;-34
2023/08/14 10:19:30;;;;;;;1.38;0.80;;;27.20;62.90;;;;;;10487325;28;20072;-38
2023/08/14 10:24:35;;;;;;;2.05;0.70;;;27.20;63.50;;;;;;10482076;28;20570;-37
2023/08/14 10:29:37;;;;;;;3.13;0.90;;;26.60;65.50;;;;;;10491393;28;20098;-42
2023/08/14 10:34:41;;;;;;;5.85;1.20;;;27.00;64.10;;;;;;10488227;28;20040;-34
2023/08/14 10:39:43;;;;;;;3.60;0.95;;;27.00;64.40;;;;;;10488346;28;20053;-42
2023/08/14 10:44:45;;;;;;;3.92;0.98;;;26.50;63.80;;;;;;10488419;28;20484;-37
2023/08/14 10:49:50;;;;;;;4.38;1.20;;;27.00;65.20;;;;;;10497601;28;20079;-39
2023/08/14 10:54:53;;;;;;;3.53;0.80;;;27.20;63.20;;;;;;10486817;28;20092;-39
2023/08/14 10:59:57;;;;;;;5.30;1.27;;;27.40;63.30;;;;;;10493641;28;20041;-41
2023/08/14 11:05:02;;;;;;;5.15;1.25;;;26.40;62.50;;;;;;10487546;28;20048;-42
2023/08/14 11:10:05;;;;;;;3.05;0.90;;;26.40;59.40;;;;;;10486985;28;20052;-33
2023/08/14 11:15:08;;;;;;;7.82;1.77;;;25.90;67.00;;;;;;10486225;28;20064;-36
2023/08/14 11:20:13;;;;;;;4.07;1.35;;;26.10;63.10;;;;;;10487433;28;20091;-33
2023/08/14 11:25:16;;;;;;;6.65;1.48;;;26.40;61.70;;;;;;10487819;28;20052;-37
2023/08/14 11:30:17;;;;;;;5.28;1.20;;;25.60;62.60;;;;;;10487838;28;20079;-34
2023/08/14 11:35:21;;;;;;;7.25;1.38;;;27.00;61.60;;;;;;10491205;28;20560;-32
2023/08/14 11:40:23;;;;;;;2.47;0.95;;;26.00;66.00;;;;;;10494906;28;20492;-41
2023/08/14 11:45:24;;;;;;;9.73;1.50;;;27.60;61.20;;;;;;10490638;28;20072;-33
2023/08/14 11:50:28;;;;;;;3.00;1.23;;;27.60;60.40;;;;;;10494389;28;20489;-33
2023/08/14 11:55:31;;;;;;;6.78;1.35;;;27.80;62.60;;;;;;10500454;28;20048;-38
2023/08/14 12:00:33;;;;;;;4.20;1.33;;;27.20;60.60;;;;;;10468403;28;20049;-38
2023/08/14 12:05:36;;;;;;;6.38;1.25;;;27.30;61.10;;;;;;10489906;28;20045;-37
2023/08/14 12:10:40;;;;;;;4.55;1.10;;;27.30;61.40;;;;;;10488871;28;20040;-35
2023/08/14 12:15:42;;;;;;;5.95;1.40;;;28.40;60.40;;;;;;10486701;28;20080;-34
2023/08/14 12:20:52;;;;;;;3.65;0.70;;;28.30;59.50;;;;;;10487138;28;20149;-43
2023/08/14 12:25:55;;;;;;;2.83;0.65;;;28.30;60.50;;;;;;10486738;28;20489;-33
2023/08/14 12:30:57;;;;;;;2.38;0.82;;;28.00;61.00;;;;;;10495890;28;20078;-34
2023/08/14 12:36:00;;;;;;;2.53;0.80;;;28.70;60.60;;;;;;10492691;28;20075;-37
2023/08/14 12:41:02;;;;;;;1.85;0.95;;;29.50;58.90;;;;;;10480007;28;20515;-37
2023/08/14 12:46:04;;;;;;;7.07;1.67;;;29.20;59.60;;;;;;10490734;28;20037;-36
2023/08/14 12:51:07;;;;;;;3.63;0.90;;;28.70;56.10;;;;;;10472668;28;20474;-38
2023/08/14 12:56:09;;;;;;;1.40;0.70;;;29.30;58.90;;;;;;10493179;28;20052;-38
2023/08/14 13:01:11;;;;;;;5.53;1.25;;;29.50;59.30;;;;;;10500853;28;20519;-33
2023/08/14 13:06:14;;;;;;;8.82;1.48;;;29.80;56.90;;;;;;10492402;28;20045;-34
2023/08/14 13:11:18;;;;;;;6.13;1.15;;;29.50;57.40;;;;;;10487321;28;20056;-36
2023/08/14 13:16:19;;;;;;;8.02;1.33;;;30.10;57.70;;;;;;10491197;28;20182;-34
2023/08/14 13:21:24;;;;;;;4.10;1.20;;;30.60;56.00;;;;;;10490751;28;20048;-43
2023/08/14 13:26:27;;;;;;;5.10;1.20;;;30.00;56.70;;;;;;10490899;28;20036;-35
2023/08/14 13:31:29;;;;;;;3.42;0.90;;;30.70;54.30;;;;;;10489835;28;20097;-38
2023/08/14 13:36:32;;;;;;;8.55;1.73;;;30.20;58.30;;;;;;10490131;28;20076;-37
2023/08/14 13:41:34;;;;;;;2.78;0.70;;;30.30;56.00;;;;;;10494009;28;20106;-34
2023/08/14 13:46:36;;;;;;;5.75;1.50;;;30.80;57.50;;;;;;10489207;28;20040;-38
2023/08/14 13:51:40;;;;;;;6.18;1.23;;;30.80;55.80;;;;;;10487894;28;20136;-36
2023/08/14 13:56:42;;;;;;;4.95;1.35;;;30.60;56.10;;;;;;10487816;28;20118;-33
2023/08/14 14:01:44;;;;;;;3.17;0.82;;;30.70;58.10;;;;;;10488249;28;20477;-32
2023/08/14 14:06:47;;;;;;;7.55;1.58;;;30.40;58.30;;;;;;10485479;28;20052;-38
2023/08/14 14:11:49;;;;;;;2.20;0.77;;;30.80;57.10;;;;;;10488743;28;20068;-35
2023/08/14 14:16:53;;;;;;;1.08;0.60;;;31.20;56.90;;;;;;10487448;28;20450;-32
2023/08/14 14:21:58;;;;;;;4.38;1.30;;;31.70;56.30;;;;;;10483204;28;20036;-32
2023/08/14 14:27:00;;;;;;;5.03;1.10;;;32.30;55.10;;;;;;10486992;28;20053;-39
2023/08/14 14:32:02;;;;;;;4.97;1.05;;;32.00;52.90;;;;;;10483876;28;20469;-35
2023/08/14 14:37:06;;;;;;;5.30;1.30;;;32.20;54.90;;;;;;10483312;28;20080;-36
2023/08/14 14:42:08;;;;;;;6.32;1.40;;;32.50;53.20;;;;;;10481678;28;20064;-37
2023/08/14 14:47:09;;;;;;;5.72;1.35;;;32.90;50.30;;;;;;10477272;28;20060;-39
2023/08/14 14:52:13;;;;;;;6.80;1.30;;;33.20;50.60;;;;;;10485300;28;20429;-33
2023/08/14 14:57:15;;;;;;;6.88;1.20;;;32.70;54.70;;;;;;10486031;28;20044;-36
2023/08/14 15:02:16;;;;;;;3.25;0.93;;;32.70;54.30;;;;;;10481088;28;20150;-39
2023/08/14 15:07:19;;;;;;;5.72;1.40;;;32.80;54.70;;;;;;10489796;28;20078;-36
2023/08/14 15:12:21;;;;;;;1.80;0.70;;;32.70;50.10;;;;;;10485894;28;20048;-32
2023/08/14 15:17:23;;;;;;;2.17;0.70;;;32.40;55.90;;;;;;10478585;28;20135;-32
2023/08/14 15:22:26;;;;;;;3.30;0.80;;;32.10;55.30;;;;;;10479391;28;20473;-35
2023/08/14 15:27:28;;;;;;;5.57;1.08;;;32.00;56.90;;;;;;10478829;28;20082;-34
2023/08/14 15:32:30;;;;;;;5.57;1.27;;;32.30;56.10;;;;;;10484019;28;20052;-42
2023/08/14 15:37:33;;;;;;;3.17;1.30;;;32.90;50.90;;;;;;10479658;28;20521;-40
2023/08/14 15:42:35;;;;;;;7.82;1.50;;;33.20;53.20;;;;;;10491959;28;20087;-42
2023/08/14 15:47:37;;;;;;;4.38;1.02;;;33.30;50.10;;;;;;10484220;28;20075;-37
2023/08/14 15:52:40;;;;;;;2.85;0.88;;;33.10;53.80;;;;;;10488480;28;20044;-35
2023/08/14 15:57:42;;;;;;;5.93;1.20;;;32.80;56.30;;;;;;10479274;28;20052;-38
2023/08/14 16:02:44;;;;;;;5.57;2.22;;;33.10;57.50;;;;;;10481132;28;20106;-38
2023/08/14 16:07:47;;;;;;;6.55;1.63;;;33.50;52.10;;;;;;10484658;28;20473;-33
2023/08/14 16:12:49;;;;;;;3.13;1.00;;;33.40;53.90;;;;;;10485393;28;20568;-36
2023/08/14 16:17:51;;;;;;;2.42;0.90;;;33.70;60.30;;;;;;10483270;28;20148;-44
2023/08/14 16:22:54;;;;;;;5.20;1.40;;;34.20;56.20;;;;;;10494003;28;20045;-34
2023/08/14 16:27:56;;;;;;;2.92;0.95;;;34.00;56.40;;;;;;10488596;28;20068;-36
2023/08/14 16:32:58;;;;;;;6.35;1.27;;;33.80;59.30;;;;;;10486918;28;20098;-35
2023/08/14 16:38:01;;;;;;;3.35;1.23;;;33.90;52.80;;;;;;10489963;28;20066;-38
2023/08/14 16:43:03;;;;;;;4.78;1.05;;;33.90;58.80;;;;;;10487525;28;20040;-41
2023/08/14 16:48:06;;;;;;;2.05;0.90;;;33.50;60.20;;;;;;10491164;28;20055;-38
2023/08/14 16:53:10;;;;;;;4.07;1.15;;;33.40;59.90;;;;;;10488293;28;20409;-31
2023/08/14 16:58:12;;;;;;;2.30;0.88;;;32.80;59.90;;;;;;10488747;28;20056;-34
2023/08/14 17:03:13;;;;;;;6.30;1.52;;;32.70;61.10;;;;;;10489419;28;20468;-37
2023/08/14 17:08:17;;;;;;;4.90;1.10;;;32.70;60.80;;;;;;10487129;28;20559;-35
2023/08/14 17:13:19;;;;;;;3.47;0.80;;;32.60;60.30;;;;;;10490486;28;20098;-40
2023/08/14 17:18:21;;;;;;;3.53;1.00;;;32.50;59.90;;;;;;10498662;28;20060;-32
2023/08/14 17:23:24;;;;;;;4.05;1.23;;;32.50;60.60;;;;;;10483486;28;20831;-44
2023/08/14 17:28:27;;;;;;;4.90;1.50;;;32.30;61.20;;;;;;10487877;28;20036;-37
2023/08/14 17:33:29;;;;;;;2.85;0.80;;;32.30;60.70;;;;;;10490736;28;20378;-34
2023/08/14 17:38:33;;;;;;;2.33;1.00;;;32.20;60.40;;;;;;10486740;28;20762;-38
2023/08/14 17:43:35;;;;;;;3.33;0.98;;;32.20;60.80;;;;;;10494312;28;20041;-33
2023/08/14 17:48:37;;;;;;;2.10;0.75;;;32.10;60.50;;;;;;10501058;28;20078;-37
2023/08/14 17:53:40;;;;;;;2.58;0.90;;;32.00;60.70;;;;;;10493114;28;20048;-38
2023/08/14 17:58:42;;;;;;;2.55;0.90;;;32.00;60.50;;;;;;10493888;28;20109;-40
2023/08/14 18:03:44;;;;;;;2.17;0.88;;;32.10;63.00;;;;;;10488681;28;20133;-34
2023/08/14 18:08:47;;;;;;;2.38;1.10;;;31.90;61.70;;;;;;10491329;28;20059;-38
2023/08/14 18:13:49;;;;;;;1.85;0.90;;;31.80;61.40;;;;;;10491547;28;20044;-43
2023/08/14 18:18:53;;;;;;;4.82;1.15;;;31.80;64.60;;;;;;10491981;28;20081;-37
2023/08/14 18:23:56;;;;;;;4.45;1.40;;;32.00;62.90;;;;;;10492769;28;20057;-42
2023/08/14 18:28:58;;;;;;;2.40;0.90;;;32.00;61.60;;;;;;10489717;28;20071;-41
2023/08/14 18:34:00;;;;;;;2.20;1.15;;;31.80;61.40;;;;;;10484185;28;20778;-42
2023/08/14 18:39:04;;;;;;;1.58;0.95;;;31.70;61.70;;;;;;10490128;28;20064;-39
2023/08/14 18:44:06;;;;;;;5.80;1.08;;;31.60;61.80;;;;;;10486479;28;20623;-37
2023/08/14 18:49:08;;;;;;;2.17;0.88;;;31.50;61.90;;;;;;10471269;28;20044;-34
2023/08/14 18:54:11;;;;;;;2.35;0.90;;;31.40;61.90;;;;;;10476678;28;20048;-43
2023/08/14 18:59:14;;;;;;;3.95;1.00;;;31.30;62.00;;;;;;10481089;28;20079;-41
2023/08/14 19:04:17;;;;;;;4.80;1.42;;;31.30;61.90;;;;;;10491025;28;20049;-38
2023/08/14 19:09:20;;;;;;;3.40;1.25;;;31.20;62.00;;;;;;10483765;28;20369;-41
2023/08/14 19:14:22;;;;;;;2.88;1.10;;;31.10;62.00;;;;;;10482630;28;20052;-40
2023/08/14 19:19:24;;;;;;;2.35;1.10;;;31.10;62.10;;;;;;10483940;28;20114;-39
2023/08/14 19:24:28;;;;;;;3.20;1.30;;;31.00;62.10;;;;;;10480579;28;20049;-38
2023/08/14 19:29:36;;;;;;;3.25;1.55;;;30.40;63.20;;;;;;10488443;28;20037;-37
2023/08/14 19:34:41;;;;;;;4.32;1.50;;;30.30;59.80;;;;;;10482562;28;20052;-37
2023/08/14 19:39:46;;;;;;;5.85;1.42;;;30.30;63.20;;;;;;10486363;28;20109;-39
2023/08/14 19:44:48;;;;;;;10.05;1.63;;;30.40;62.20;;;;;;10485106;28;20384;-37
2023/08/14 19:49:50;;;;;;;5.68;2.25;;;30.50;62.20;;;;;;10485024;28;20623;-37
2023/08/14 19:54:53;;;;;;;9.80;2.40;;;30.20;63.00;;;;;;10488319;28;20421;-36
2023/08/14 19:59:55;;;;;;;6.55;2.15;;;30.40;62.00;;;;;;10493023;28;20487;-42
2023/08/14 20:04:57;;;;;;;6.45;1.88;;;30.40;62.00;;;;;;10493603;28;20106;-42
2023/08/14 20:10:04;;;;;;;4.65;1.90;;;30.40;62.00;;;;;;10489947;28;20052;-43
2023/08/14 20:15:07;;;;;;;7.10;2.35;;;30.40;61.90;;;;;;10488723;28;20048;-38
2023/08/14 20:20:09;;;;;;;7.10;1.92;;;30.20;62.00;;;;;;10488274;28;20131;-39
2023/08/14 20:25:13;;;;;;;8.85;1.67;;;30.20;62.00;;;;;;10486142;28;20048;-36
2023/08/14 20:30:15;;;;;;;6.82;1.90;;;30.00;62.60;;;;;;10487281;28;20045;-41
2023/08/14 20:35:17;;;;;;;11.73;1.60;;;30.00;62.10;;;;;;10481166;28;20045;-44
2023/08/14 20:40:21;;;;;;;6.90;1.50;;;29.40;63.40;;;;;;10492003;28;20077;-40
2023/08/14 20:45:23;;;;;;;9.27;1.80;;;29.40;63.10;;;;;;10469656;28;20062;-39
2023/08/14 20:50:26;;;;;;;6.82;1.42;;;29.90;62.50;;;;;;10487969;28;20472;-30
2023/08/14 20:55:30;;;;;;;8.68;1.75;;;29.70;62.50;;;;;;10488633;28;20055;-37
2023/08/14 21:00:32;;;;;;;6.38;1.58;;;29.80;63.00;;;;;;10499322;28;20048;-39
2023/08/14 21:05:33;;;;;;;6.82;2.05;;;29.80;62.50;;;;;;10493025;28;20389;-34
2023/08/14 21:10:41;;;;;;;8.82;1.98;;;29.70;62.80;;;;;;10494638;28;20488;-41
2023/08/14 21:15:43;;;;;;;8.05;1.58;;;29.60;62.90;;;;;;10452588;28;20084;-40
2023/08/14 21:20:45;;;;;;;5.05;1.30;;;29.70;62.80;;;;;;10451336;28;20053;-39
2023/08/14 21:25:49;;;;;;;7.60;1.63;;;29.70;62.80;;;;;;10448399;28;20087;-32
2023/08/14 21:30:58;;;;;;;5.22;1.48;;;29.70;62.90;;;;;;10449241;28;20809;-33
2023/08/14 21:36:00;;;;;;;4.90;1.10;;;29.70;62.90;;;;;;10446915;28;20151;-40
2023/08/14 21:41:05;;;;;;;3.80;1.50;;;29.60;62.90;;;;;;10447429;28;20111;-43
2023/08/14 21:46:08;;;;;;;3.92;1.10;;;29.50;63.70;;;;;;10425583;28;20041;-40
2023/08/14 21:51:10;;;;;;;5.90;1.55;;;29.50;63.00;;;;;;10443949;28;20068;-36
2023/08/14 21:56:14;;;;;;;7.20;1.30;;;29.50;63.00;;;;;;10444018;28;20387;-40
2023/08/14 22:01:16;;;;;;;3.70;1.10;;;29.30;63.30;;;;;;10434434;28;20057;-37
2023/08/14 22:06:18;;;;;;;4.95;1.30;;;29.40;63.20;;;;;;10451861;28;20126;-33
2023/08/14 22:11:21;;;;;;;3.17;1.17;;;29.40;63.00;;;;;;10443225;28;20061;-37
2023/08/14 22:16:23;;;;;;;3.17;1.10;;;29.40;63.00;;;;;;10440020;28;20040;-36
2023/08/14 22:21:25;;;;;;;3.85;1.17;;;29.30;63.00;;;;;;10437331;28;20131;-38
2023/08/14 22:26:29;;;;;;;4.43;1.02;;;29.30;63.00;;;;;;10442081;28;20087;-41
2023/08/14 22:31:31;;;;;;;7.25;1.33;;;29.30;63.00;;;;;;10442149;28;20048;-38
2023/08/14 22:36:37;;;;;;;5.50;1.40;;;29.30;62.90;;;;;;10443250;28;20052;-42
2023/08/14 22:41:41;;;;;;;3.25;0.90;;;29.20;62.90;;;;;;10439787;28;20068;-38
2023/08/14 22:46:43;;;;;;;3.35;1.00;;;29.20;62.90;;;;;;10437681;28;20107;-40
2023/08/14 22:51:52;;;;;;;4.43;1.33;;;29.20;62.90;;;;;;10445407;28;20064;-36
2023/08/14 22:56:57;;;;;;;4.35;1.20;;;29.10;62.90;;;;;;10455495;28;20135;-37
2023/08/14 23:01:59;;;;;;;3.63;1.20;;;29.10;62.90;;;;;;10443126;28;20072;-38
2023/08/14 23:07:01;;;;;;;2.63;1.25;;;28.80;63.20;;;;;;10440359;28;20071;-36
2023/08/14 23:12:05;;;;;;;5.78;1.20;;;29.00;63.00;;;;;;10455007;28;20528;-40
2023/08/14 23:17:07;;;;;;;2.05;0.95;;;29.00;62.80;;;;;;10498143;28;20137;-38
2023/08/14 23:22:18;;;;;;;2.10;0.90;;;29.00;62.80;;;;;;10486344;28;20120;-35
2023/08/14 23:27:22;;;;;;;3.38;1.10;;;28.90;62.90;;;;;;10486786;28;20519;-40
2023/08/14 23:32:24;;;;;;;2.40;0.90;;;28.90;62.90;;;;;;10491332;28;20044;-35
2023/08/14 23:37:26;;;;;;;3.75;1.17;;;28.90;63.00;;;;;;10494949;28;20063;-41
2023/08/14 23:42:29;;;;;;;2.55;0.77;;;28.80;63.00;;;;;;10493289;28;20056;-36
2023/08/14 23:47:31;;;;;;;4.13;1.30;;;28.80;63.00;;;;;;10495625;28;20105;-35
2023/08/14 23:52:33;;;;;;;2.97;1.02;;;28.80;63.10;;;;;;10498269;28;20041;-39
2023/08/14 23:57:36;;;;;;;2.10;0.93;;;28.60;63.50;;;;;;10496443;28;20094;-34
